createdAt,value
2023-03-14T02:10:57.055Z,99.90
2023-03-14T02:13:23.796Z,99.90
2023-03-14T02:15:50.927Z,99.90
2023-03-14T02:18:17.725Z,99.90
2023-03-14T02:21:08.213Z,99.90
2023-03-14T02:23:52.867Z,99.90
2023-03-14T02:26:32.834Z,99.90
2023-03-14T02:28:59.709Z,99.90
2023-03-14T02:31:26.795Z,99.90
2023-03-14T02:33:53.834Z,99.90
2023-03-14T02:36:21.572Z,99.90
2023-03-14T02:38:51.221Z,99.90
2023-03-14T02:41:17.943Z,99.90
2023-03-14T02:43:44.734Z,99.90
2023-03-14T02:46:12.830Z,99.90
2023-03-14T02:48:46.321Z,99.90
2023-03-14T02:51:13.295Z,99.90
2023-03-14T02:53:40.799Z,99.90
2023-03-14T02:56:08.108Z,99.90
2023-03-14T02:58:34.867Z,99.90
2023-03-14T03:01:01.597Z,99.90
2023-03-14T03:03:28.443Z,99.90
2023-03-14T03:05:56.712Z,99.90
2023-03-14T03:08:24.857Z,99.90
2023-03-14T03:10:51.702Z,99.90
2023-03-14T03:13:18.792Z,99.90
2023-03-14T03:15:46.137Z,99.90
2023-03-14T03:18:12.896Z,99.90
2023-03-14T03:20:39.622Z,99.90
2023-03-14T03:23:06.314Z,99.90
2023-03-14T03:25:33.377Z,99.90
2023-03-14T03:28:00.164Z,99.90
2023-03-14T03:30:27.064Z,99.90
2023-03-14T03:32:53.840Z,99.90
2023-03-14T03:35:20.559Z,99.90
2023-03-14T03:37:47.235Z,99.90
2023-03-14T03:40:13.998Z,99.90
2023-03-14T03:42:40.744Z,99.90
2023-03-14T03:45:07.754Z,99.90
2023-03-14T03:47:34.567Z,99.90
2023-03-14T03:50:01.275Z,99.90
2023-03-14T03:52:27.927Z,99.90
2023-03-14T03:54:54.689Z,99.90
2023-03-14T03:57:21.536Z,99.90
2023-03-14T03:59:48.267Z,99.90
2023-03-14T04:02:15.068Z,99.90
2023-03-14T04:04:41.903Z,99.90
2023-03-14T04:07:08.846Z,99.90
2023-03-14T04:09:35.548Z,99.90
2023-03-14T04:12:02.257Z,99.90
2023-03-14T04:14:28.988Z,99.90
2023-03-14T04:16:55.783Z,99.90
2023-03-14T04:19:22.535Z,99.90
2023-03-14T04:21:49.336Z,99.90
2023-03-14T04:24:16.045Z,99.90
2023-03-14T04:26:42.749Z,99.90
2023-03-14T04:29:10.974Z,99.90
2023-03-14T04:31:38.893Z,99.90
2023-03-14T04:34:05.634Z,99.90
2023-03-14T04:36:32.400Z,99.90
2023-03-14T04:38:59.139Z,99.90
2023-03-14T04:41:25.881Z,99.90
2023-03-14T04:43:52.641Z,99.90
2023-03-14T04:46:19.621Z,99.90
2023-03-14T04:48:46.337Z,99.90
2023-03-14T04:51:13.046Z,99.90
2023-03-14T04:53:39.849Z,99.90
2023-03-14T04:56:06.922Z,99.90
2023-03-14T04:58:33.689Z,99.90
2023-03-14T05:01:04.635Z,99.90
2023-03-14T05:03:31.356Z,99.90
2023-03-14T05:05:59.873Z,99.90
2023-03-14T05:08:26.699Z,99.90
2023-03-14T05:10:54.690Z,99.90
2023-03-14T05:13:21.619Z,99.90
2023-03-14T05:15:48.462Z,99.90
2023-03-14T05:18:15.242Z,99.90
2023-03-14T05:20:44.093Z,99.90
2023-03-14T05:23:11.127Z,99.90
2023-03-14T05:25:37.944Z,99.90
2023-03-14T05:28:04.897Z,99.90
2023-03-14T05:30:31.887Z,99.90
2023-03-14T05:32:58.694Z,99.90
2023-03-14T05:35:25.465Z,99.90
2023-03-14T05:37:52.155Z,99.90
2023-03-14T05:40:18.899Z,99.90
2023-03-14T05:42:45.623Z,99.90
2023-03-14T05:45:12.304Z,99.90
2023-03-14T05:47:39.005Z,99.90
2023-03-14T05:50:05.941Z,99.90
2023-03-14T05:52:32.767Z,99.90
2023-03-14T05:54:59.453Z,99.90
2023-03-14T05:57:26.144Z,99.90
2023-03-14T05:59:52.902Z,99.90
2023-03-14T06:02:19.682Z,99.90
2023-03-14T06:04:46.457Z,99.90
2023-03-14T06:07:13.182Z,99.90
2023-03-14T06:09:40.736Z,99.90
2023-03-14T06:12:07.584Z,99.90
2023-03-14T06:14:34.266Z,99.90
2023-03-14T06:17:01.086Z,99.90
2023-03-14T06:19:27.799Z,99.90
2023-03-14T06:21:54.517Z,99.90
2023-03-14T06:24:21.209Z,99.90
2023-03-14T06:26:47.931Z,99.90
2023-03-14T06:29:14.653Z,99.90
2023-03-14T06:31:41.414Z,99.90
2023-03-14T06:34:08.154Z,99.90
2023-03-14T06:36:34.961Z,99.90
2023-03-14T06:39:01.727Z,99.90
2023-03-14T06:41:28.589Z,99.90
2023-03-14T06:43:56.494Z,99.90
2023-03-14T06:46:23.392Z,99.90
2023-03-14T06:48:50.369Z,99.90
2023-03-14T06:51:17.091Z,99.90
2023-03-14T06:53:43.802Z,99.90
2023-03-14T06:56:10.603Z,99.90
2023-03-14T06:58:37.474Z,99.90
2023-03-14T07:01:04.406Z,99.90
2023-03-14T07:03:31.193Z,99.90
2023-03-14T07:05:57.955Z,99.90
2023-03-14T07:08:24.717Z,99.90
2023-03-14T07:10:51.420Z,99.90
2023-03-14T07:13:18.157Z,99.80
2023-03-14T07:15:45.609Z,99.90
2023-03-14T07:18:12.361Z,99.70
2023-03-14T07:20:39.094Z,99.90
2023-03-14T07:23:05.938Z,99.90
2023-03-14T07:25:32.624Z,99.90
2023-03-14T07:27:59.292Z,99.90
2023-03-14T07:30:26.075Z,99.90
2023-03-14T07:32:53.154Z,99.90
2023-03-14T07:35:19.869Z,99.90
2023-03-14T07:37:46.552Z,99.90
2023-03-14T07:40:16.148Z,99.90
2023-03-14T07:42:43.529Z,99.90
2023-03-14T07:45:12.390Z,99.90
2023-03-14T07:47:39.261Z,99.90
2023-03-14T07:50:06.167Z,99.90
2023-03-14T07:52:33.095Z,99.90
2023-03-14T07:54:59.868Z,99.90
2023-03-14T07:57:26.606Z,99.70
2023-03-14T07:59:53.314Z,99.90
2023-03-14T08:02:23.468Z,99.80
2023-03-14T08:04:50.580Z,99.50
2023-03-14T08:07:17.427Z,99.40
2023-03-14T08:09:44.219Z,98.90
2023-03-14T08:12:11.004Z,98.90
2023-03-14T08:14:37.761Z,98.70
2023-03-14T08:17:06.367Z,98.50
2023-03-14T08:19:33.200Z,98.30
2023-03-14T08:21:59.924Z,98.20
2023-03-14T08:24:26.710Z,98.40
2023-03-14T08:26:53.405Z,98.10
2023-03-14T08:29:20.213Z,97.70
2023-03-14T08:31:47.171Z,97.70
2023-03-14T08:34:13.961Z,97.60
2023-03-14T08:36:40.992Z,96.50
2023-03-14T08:39:08.632Z,96.40
2023-03-14T08:41:41.121Z,96.00
2023-03-14T08:44:08.563Z,95.70
2023-03-14T08:46:35.553Z,95.10
2023-03-14T08:49:02.367Z,94.40
2023-03-14T08:51:29.105Z,94.40
2023-03-14T08:53:55.813Z,94.20
2023-03-14T08:56:24.871Z,93.80
2023-03-14T08:58:52.697Z,93.50
2023-03-14T09:01:20.389Z,92.90
2023-03-14T09:03:49.194Z,92.80
2023-03-14T09:06:18.914Z,92.50
2023-03-14T09:08:46.443Z,92.10
2023-03-14T09:11:13.606Z,91.70
2023-03-14T09:13:40.696Z,91.80
2023-03-14T09:16:08.286Z,91.30
2023-03-14T09:18:35.214Z,91.70
2023-03-14T09:21:02.105Z,90.80
2023-03-14T09:23:28.827Z,90.20
2023-03-14T09:25:56.846Z,90.00
2023-03-14T09:28:23.597Z,90.50
2023-03-14T09:30:50.671Z,90.00
2023-03-14T09:33:17.725Z,89.70
2023-03-14T09:35:44.626Z,89.30
2023-03-14T09:38:11.466Z,89.30
2023-03-14T09:40:38.659Z,89.00
2023-03-14T09:43:05.456Z,88.30
2023-03-14T09:45:41.420Z,88.40
2023-03-14T09:48:16.936Z,88.70
2023-03-14T09:50:45.543Z,87.40
2023-03-14T09:53:19.647Z,87.60
2023-03-14T09:55:48.003Z,86.30
2023-03-14T09:58:17.035Z,85.20
2023-03-14T10:00:44.688Z,83.70
2023-03-14T10:03:14.444Z,83.90
2023-03-14T10:05:42.231Z,83.50
2023-03-14T10:08:12.697Z,82.80
2023-03-14T10:10:39.445Z,83.20
2023-03-14T10:13:15.140Z,83.60
2023-03-14T10:15:41.986Z,83.80
2023-03-14T10:18:13.802Z,84.00
2023-03-14T10:20:45.151Z,84.10
2023-03-14T10:23:14.674Z,82.00
2023-03-14T10:26:01.687Z,81.40
2023-03-14T10:28:47.842Z,79.20
2023-03-14T10:31:15.388Z,79.70
2023-03-14T10:33:43.156Z,78.00
2023-03-14T10:36:22.614Z,79.80
2023-03-14T10:38:49.499Z,80.90
2023-03-14T10:41:27.279Z,79.50
2023-03-14T10:43:57.098Z,78.80
2023-03-14T10:46:25.792Z,78.20
2023-03-14T10:48:52.762Z,79.50
2023-03-14T10:51:27.027Z,80.40
2023-03-14T10:53:56.860Z,81.30
2023-03-14T10:56:24.837Z,82.90
2023-03-14T10:58:58.067Z,83.20
2023-03-14T11:01:33.727Z,83.70
2023-03-14T11:04:00.469Z,83.30
2023-03-14T11:06:33.218Z,82.90
2023-03-14T11:09:11.638Z,82.60
2023-03-14T11:11:40.045Z,82.00
2023-03-14T11:14:13.605Z,81.90
2023-03-14T11:16:50.458Z,82.30
2023-03-14T11:19:17.592Z,82.20
2023-03-14T11:22:02.836Z,82.30
2023-03-14T11:24:38.380Z,81.90
2023-03-14T11:27:14.541Z,82.00
2023-03-14T11:29:42.825Z,81.80
2023-03-14T11:32:20.496Z,81.00
2023-03-14T11:34:51.752Z,80.80
2023-03-14T11:37:37.288Z,80.30
2023-03-14T11:40:10.904Z,81.10
2023-03-14T11:42:38.425Z,81.50
2023-03-14T11:45:06.190Z,81.90
2023-03-14T11:47:32.950Z,82.10
2023-03-14T11:50:03.293Z,81.40
2023-03-14T11:52:44.318Z,81.10
2023-03-14T11:55:18.312Z,81.30
2023-03-14T11:57:46.094Z,82.00
2023-03-14T12:00:20.314Z,82.80
2023-03-14T12:02:47.426Z,83.00
2023-03-14T12:05:17.186Z,83.20
2023-03-14T12:07:43.866Z,83.40
2023-03-14T12:10:10.930Z,83.30
2023-03-14T12:12:38.032Z,82.70
2023-03-14T12:15:05.096Z,82.50
2023-03-14T12:17:55.159Z,82.50
2023-03-14T12:20:23.528Z,82.30
2023-03-14T12:22:52.249Z,82.60
2023-03-14T12:25:21.210Z,82.80
2023-03-14T12:28:07.034Z,83.20
2023-03-14T12:30:43.185Z,83.50
2023-03-14T12:33:09.967Z,83.20
2023-03-14T12:35:39.671Z,83.60
2023-03-14T12:38:09.386Z,84.20
2023-03-14T12:40:41.302Z,84.20
2023-03-14T12:43:28.387Z,83.70
2023-03-14T12:46:17.477Z,84.50
2023-03-14T12:48:48.777Z,85.20
2023-03-14T12:51:16.686Z,85.80
2023-03-14T12:53:43.419Z,86.20
2023-03-14T12:56:12.474Z,86.00
2023-03-14T12:58:48.859Z,86.20
2023-03-14T13:01:19.986Z,84.10
2023-03-14T13:03:55.149Z,82.80
2023-03-14T13:06:41.006Z,83.20
2023-03-14T13:09:26.289Z,83.30
2023-03-14T13:11:57.353Z,84.30
2023-03-14T13:14:24.487Z,86.30
2023-03-14T13:16:51.239Z,86.90
2023-03-14T13:19:23.199Z,87.40
2023-03-14T13:21:51.284Z,87.50
2023-03-14T13:24:28.114Z,87.40
2023-03-14T13:26:55.794Z,87.70
2023-03-14T13:29:26.930Z,88.10
2023-03-14T13:31:55.235Z,88.70
2023-03-14T13:34:22.071Z,88.90
2023-03-14T13:36:52.672Z,89.40
2023-03-14T13:39:30.120Z,90.30
2023-03-14T13:42:00.608Z,90.60
2023-03-14T13:44:33.284Z,90.50
2023-03-14T13:47:01.028Z,91.00
2023-03-14T13:49:29.973Z,91.50
2023-03-14T13:51:56.730Z,91.70
2023-03-14T13:54:23.735Z,92.10
2023-03-14T13:57:00.109Z,92.10
2023-03-14T13:59:30.782Z,92.30
2023-03-14T14:01:58.869Z,92.40
2023-03-14T14:04:27.461Z,92.50
2023-03-14T14:06:56.602Z,92.40
2023-03-14T14:09:23.319Z,92.50
2023-03-14T14:12:15.531Z,92.30
2023-03-14T14:14:46.098Z,92.50
2023-03-14T14:17:15.795Z,93.00
2023-03-14T14:19:43.656Z,93.10
2023-03-14T14:22:11.378Z,93.10
2023-03-14T14:24:38.835Z,93.30
2023-03-14T14:27:17.819Z,93.50
2023-03-14T14:29:45.548Z,93.80
2023-03-14T14:32:13.636Z,94.20
2023-03-14T14:34:41.010Z,94.30
2023-03-14T14:37:27.442Z,94.50
2023-03-14T14:39:56.374Z,94.60
2023-03-14T14:42:25.781Z,94.60
2023-03-14T14:44:52.900Z,94.70
2023-03-14T14:47:21.579Z,95.40
2023-03-14T14:49:49.009Z,97.00
2023-03-14T14:52:17.240Z,97.70
2023-03-14T14:54:47.540Z,98.00
2023-03-14T14:57:18.528Z,98.40
2023-03-14T14:59:45.575Z,98.50
2023-03-14T15:02:28.545Z,98.70
2023-03-14T15:04:55.335Z,98.80
2023-03-14T15:07:22.050Z,98.80
2023-03-14T15:09:48.823Z,98.90
2023-03-14T15:12:15.534Z,99.30
2023-03-14T15:14:42.256Z,99.30
2023-03-14T15:17:13.042Z,99.30
2023-03-14T15:19:40.036Z,99.40
2023-03-14T15:22:12.645Z,99.40
2023-03-14T15:24:39.393Z,99.40
2023-03-14T15:27:11.251Z,99.20
2023-03-14T15:29:38.850Z,99.10
2023-03-14T15:32:05.988Z,99.40
2023-03-14T15:34:32.969Z,99.60
2023-03-14T15:36:59.764Z,99.40
2023-03-14T15:39:27.019Z,99.20
2023-03-14T15:41:53.755Z,99.40
2023-03-14T15:44:20.467Z,99.00
2023-03-14T15:46:47.173Z,98.80
2023-03-14T15:49:13.882Z,98.70
2023-03-14T15:51:40.615Z,98.70
2023-03-14T15:54:07.299Z,99.00
2023-03-14T15:56:34.099Z,98.50
2023-03-14T15:59:00.972Z,98.40
2023-03-14T16:01:27.858Z,98.60
2023-03-14T16:03:54.729Z,98.70
2023-03-14T16:06:21.541Z,98.80
2023-03-14T16:08:48.277Z,98.90
2023-03-14T16:11:16.071Z,98.80
2023-03-14T16:13:42.937Z,98.80
2023-03-14T16:16:09.806Z,98.90
2023-03-14T16:18:37.518Z,99.20
2023-03-14T16:21:06.938Z,98.90
2023-03-14T16:23:34.750Z,98.80
2023-03-14T16:26:04.144Z,98.60
2023-03-14T16:28:30.929Z,98.80
2023-03-14T16:31:01.660Z,98.70
2023-03-14T16:33:28.628Z,98.30
2023-03-14T16:35:56.874Z,98.10
2023-03-14T16:38:24.667Z,98.30
2023-03-14T16:41:01.813Z,98.20
2023-03-14T16:43:28.690Z,98.20
2023-03-14T16:45:58.465Z,98.20
2023-03-14T16:48:25.557Z,97.90
2023-03-14T16:50:52.339Z,97.90
2023-03-14T16:53:22.364Z,98.00
2023-03-14T16:55:49.949Z,97.60
2023-03-14T16:58:17.097Z,97.20
2023-03-14T17:00:47.470Z,97.50
2023-03-14T17:03:15.074Z,98.00
2023-03-14T17:05:49.124Z,98.30
2023-03-14T17:08:17.045Z,98.60
2023-03-14T17:10:44.060Z,98.60
2023-03-14T17:13:11.260Z,98.80
2023-03-14T17:15:38.254Z,98.60
2023-03-14T17:18:05.515Z,98.40
2023-03-14T17:20:32.549Z,98.50
2023-03-14T17:22:59.299Z,98.30
2023-03-14T17:25:26.029Z,98.40
2023-03-14T17:27:52.763Z,98.20
2023-03-14T17:30:19.612Z,98.10
2023-03-14T17:32:46.375Z,97.90
2023-03-14T17:35:13.191Z,97.80
2023-03-14T17:37:40.226Z,97.90
2023-03-14T17:40:07.115Z,97.70
2023-03-14T17:42:34.188Z,97.80
2023-03-14T17:45:01.008Z,97.90
2023-03-14T17:47:27.773Z,97.60
2023-03-14T17:49:54.523Z,97.40
2023-03-14T17:52:21.277Z,97.60
2023-03-14T17:54:48.117Z,97.40
2023-03-14T17:57:14.814Z,97.60
2023-03-14T17:59:42.809Z,97.60
2023-03-14T18:02:11.069Z,97.50
2023-03-14T18:04:38.082Z,97.90
2023-03-14T18:07:04.871Z,98.20
2023-03-14T18:09:31.663Z,98.40
2023-03-14T18:12:07.483Z,98.50
2023-03-14T18:14:35.273Z,98.50
2023-03-14T18:17:01.961Z,98.60
2023-03-14T18:19:28.650Z,98.80
2023-03-14T18:21:55.370Z,99.10
2023-03-14T18:24:22.194Z,98.90
2023-03-14T18:26:48.915Z,98.80
2023-03-14T18:29:15.670Z,99.00
2023-03-14T18:31:42.831Z,99.40
2023-03-14T18:34:10.393Z,99.60
2023-03-14T18:36:37.664Z,99.50
2023-03-14T18:39:06.937Z,99.10
2023-03-14T18:41:34.983Z,99.30
2023-03-14T18:44:02.123Z,99.30
2023-03-14T18:46:29.540Z,99.00
2023-03-14T18:48:56.568Z,98.90
2023-03-14T18:51:28.887Z,98.90
2023-03-14T18:54:08.209Z,98.80
2023-03-14T18:56:36.495Z,98.70
2023-03-14T18:59:03.205Z,98.60
2023-03-14T19:01:31.536Z,98.40
2023-03-14T19:03:58.914Z,98.50
2023-03-14T19:06:25.668Z,98.50
2023-03-14T19:08:52.428Z,98.30
2023-03-14T19:11:19.179Z,98.20
2023-03-14T19:13:45.886Z,98.00
2023-03-14T19:16:13.715Z,97.60
2023-03-14T19:18:40.548Z,97.90
2023-03-14T19:21:08.866Z,97.80
2023-03-14T19:23:36.459Z,97.70
2023-03-14T19:26:03.203Z,97.70
2023-03-14T19:28:30.158Z,97.70
2023-03-14T19:30:56.894Z,97.70
2023-03-14T19:33:24.032Z,97.30
2023-03-14T19:35:50.762Z,97.40
2023-03-14T19:38:17.553Z,97.50
2023-03-14T19:40:47.665Z,97.50
2023-03-14T19:43:14.340Z,97.10
2023-03-14T19:45:42.717Z,97.30
2023-03-14T19:48:11.352Z,97.20
2023-03-14T19:50:39.085Z,97.50
2023-03-14T19:53:08.203Z,97.40
2023-03-14T19:55:35.302Z,97.50
2023-03-14T19:58:02.020Z,97.60
2023-03-14T20:00:28.872Z,97.50
2023-03-14T20:02:55.777Z,97.50
2023-03-14T20:05:23.380Z,97.40
2023-03-14T20:07:50.210Z,97.50
2023-03-14T20:10:18.258Z,97.70
2023-03-14T20:12:45.628Z,97.70
2023-03-14T20:15:18.130Z,97.50
2023-03-14T20:17:48.911Z,97.60
2023-03-14T20:20:16.108Z,97.60
2023-03-14T20:22:43.158Z,97.50
2023-03-14T20:25:11.675Z,97.40
2023-03-14T20:27:38.444Z,97.50
2023-03-14T20:30:12.259Z,97.30
2023-03-14T20:32:39.907Z,97.40
2023-03-14T20:35:07.288Z,97.40
2023-03-14T20:37:34.158Z,97.30
2023-03-14T20:40:01.117Z,97.00
2023-03-14T20:42:27.839Z,97.10
2023-03-14T20:44:54.647Z,96.90
2023-03-14T20:47:21.691Z,97.30
2023-03-14T20:49:48.449Z,97.10
2023-03-14T20:52:15.583Z,97.00
2023-03-14T20:54:42.467Z,96.90
2023-03-14T20:57:09.253Z,96.90
2023-03-14T20:59:36.091Z,96.60
2023-03-14T21:02:03.116Z,96.80
2023-03-14T21:04:30.202Z,96.70
2023-03-14T21:06:57.194Z,96.70
2023-03-14T21:09:24.640Z,96.80
2023-03-14T21:11:51.331Z,96.90
2023-03-14T21:14:18.728Z,96.90
2023-03-14T21:16:45.959Z,96.70
2023-03-14T21:19:12.832Z,96.50
2023-03-14T21:21:39.556Z,96.40
2023-03-14T21:24:06.908Z,96.30
2023-03-14T21:26:33.608Z,96.10
2023-03-14T21:29:02.985Z,96.20
2023-03-14T21:31:30.466Z,96.30
2023-03-14T21:33:57.525Z,96.30
2023-03-14T21:36:24.394Z,96.30
2023-03-14T21:38:51.148Z,96.50
2023-03-14T21:41:17.953Z,96.50
2023-03-14T21:43:45.923Z,96.60
2023-03-14T21:46:13.409Z,96.60
2023-03-14T21:48:40.183Z,96.60
2023-03-14T21:51:07.284Z,96.60
2023-03-14T21:53:34.336Z,96.80
2023-03-14T21:56:01.126Z,96.80
2023-03-14T21:58:27.777Z,96.90
2023-03-14T22:00:55.347Z,96.90
2023-03-14T22:03:25.276Z,97.20
2023-03-14T22:05:52.056Z,97.20
2023-03-14T22:08:20.629Z,97.30
2023-03-14T22:10:48.299Z,97.40
2023-03-14T22:13:15.659Z,97.40
2023-03-14T22:15:45.172Z,97.30
2023-03-14T22:18:12.480Z,97.40
2023-03-14T22:20:39.469Z,97.50
2023-03-14T22:23:06.160Z,97.40
2023-03-14T22:25:33.073Z,97.30
2023-03-14T22:27:59.727Z,97.50
2023-03-14T22:30:26.646Z,97.50
2023-03-14T22:32:53.686Z,97.40
2023-03-14T22:35:20.561Z,97.50
2023-03-14T22:37:47.331Z,97.40
2023-03-14T22:40:14.147Z,97.50
2023-03-14T22:42:40.821Z,97.40
2023-03-14T22:45:07.846Z,97.40
2023-03-14T22:47:34.568Z,97.20
2023-03-14T22:50:02.471Z,97.30
2023-03-14T22:52:31.141Z,97.50
2023-03-14T22:54:58.935Z,97.40
2023-03-14T22:57:25.713Z,97.60
2023-03-14T22:59:52.413Z,97.50
2023-03-14T23:02:19.396Z,97.40
2023-03-14T23:04:46.177Z,97.40
2023-03-14T23:07:12.893Z,97.60
2023-03-14T23:09:40.185Z,97.60
2023-03-14T23:12:07.304Z,97.60
2023-03-14T23:14:33.984Z,97.60
2023-03-14T23:17:00.734Z,97.50
2023-03-14T23:19:27.465Z,97.70
2023-03-14T23:21:54.607Z,97.60
2023-03-14T23:24:21.418Z,97.60
2023-03-14T23:26:48.134Z,97.60
2023-03-14T23:29:14.837Z,97.40
2023-03-14T23:31:41.879Z,97.60
2023-03-14T23:34:09.096Z,97.70
2023-03-14T23:36:37.298Z,97.70
2023-03-14T23:39:05.355Z,97.70
2023-03-14T23:41:32.169Z,97.70
2023-03-14T23:43:58.856Z,97.70
2023-03-14T23:46:25.572Z,97.60
2023-03-14T23:48:52.631Z,97.70
2023-03-14T23:51:19.296Z,98.00
2023-03-14T23:53:46.046Z,98.20
2023-03-14T23:56:14.130Z,98.30
2023-03-14T23:58:41.241Z,98.20
